createdAt,value
2018-03-08T00:00:29.994Z,5.70
2018-03-08T00:02:57.558Z,5.70
2018-03-08T00:05:25.110Z,5.70
2018-03-08T00:07:52.729Z,5.60
2018-03-08T00:10:21.545Z,5.60
2018-03-08T00:12:49.173Z,5.60
2018-03-08T00:15:16.842Z,5.60
2018-03-08T00:17:44.416Z,5.50
2018-03-08T00:20:12.044Z,5.50
2018-03-08T00:22:40.036Z,5.50
2018-03-08T00:25:08.433Z,5.50
2018-03-08T00:27:37.308Z,5.50
2018-03-08T00:30:06.356Z,5.50
2018-03-08T00:32:37.173Z,5.50
2018-03-08T00:35:06.157Z,5.50
2018-03-08T00:37:33.755Z,5.50
2018-03-08T00:40:02.349Z,5.40
2018-03-08T00:42:30.947Z,5.40
2018-03-08T00:44:58.492Z,5.40
2018-03-08T00:47:27.126Z,5.40
2018-03-08T00:49:55.036Z,5.40
2018-03-08T00:52:22.877Z,5.30
2018-03-08T00:54:50.721Z,5.30
2018-03-08T00:57:18.253Z,5.40
2018-03-08T00:59:46.762Z,5.40
2018-03-08T01:02:14.340Z,5.40
2018-03-08T01:04:41.910Z,5.40
2018-03-08T01:07:09.452Z,5.40
2018-03-08T01:09:38.765Z,5.40
2018-03-08T01:12:08.580Z,5.40
2018-03-08T01:14:36.817Z,5.40
2018-03-08T01:17:04.387Z,5.40
2018-03-08T01:19:32.741Z,5.40
2018-03-08T01:22:00.313Z,5.40
2018-03-08T01:24:27.930Z,5.40
2018-03-08T01:26:55.484Z,5.40
2018-03-08T01:29:23.010Z,5.40
2018-03-08T01:31:50.638Z,5.40
2018-03-08T01:34:18.201Z,5.40
2018-03-08T01:36:46.200Z,5.40
2018-03-08T01:39:13.772Z,5.40
2018-03-08T01:41:41.910Z,5.30
2018-03-08T01:44:09.473Z,5.30
2018-03-08T01:46:38.272Z,5.30
2018-03-08T01:49:05.830Z,5.20
2018-03-08T01:51:33.404Z,5.10
2018-03-08T01:54:01.789Z,5.00
2018-03-08T01:56:29.362Z,5.00
2018-03-08T01:58:56.942Z,5.00
2018-03-08T02:01:24.881Z,4.90
2018-03-08T02:03:52.795Z,4.90
2018-03-08T02:06:20.776Z,4.80
2018-03-08T02:08:48.314Z,4.80
2018-03-08T02:11:16.289Z,4.70
2018-03-08T02:13:44.272Z,4.60
2018-03-08T02:16:12.338Z,4.60
2018-03-08T02:18:40.357Z,4.50
2018-03-08T02:21:07.927Z,4.50
2018-03-08T02:23:35.518Z,4.50
2018-03-08T02:26:03.968Z,4.40
2018-03-08T02:28:32.162Z,4.40
2018-03-08T02:30:59.784Z,4.40
2018-03-08T02:33:27.660Z,4.40
2018-03-08T02:35:55.208Z,4.30
2018-03-08T02:38:23.096Z,4.40
2018-03-08T02:40:50.633Z,4.40
2018-03-08T02:43:18.162Z,4.30
2018-03-08T02:45:45.756Z,4.30
2018-03-08T02:48:13.322Z,4.30
2018-03-08T02:50:40.867Z,4.20
2018-03-08T02:53:08.949Z,4.20
2018-03-08T02:55:36.532Z,4.20
2018-03-08T02:58:04.083Z,4.20
2018-03-08T03:00:31.874Z,4.20
2018-03-08T03:03:00.016Z,4.20
2018-03-08T03:05:27.729Z,4.10
2018-03-08T03:07:56.477Z,4.00
2018-03-08T03:10:24.061Z,4.00
2018-03-08T03:12:51.653Z,4.00
2018-03-08T03:15:20.077Z,4.00
2018-03-08T03:17:48.165Z,3.90
2018-03-08T03:20:16.652Z,3.90
2018-03-08T03:22:44.598Z,3.90
2018-03-08T03:25:12.151Z,3.90
2018-03-08T03:27:40.543Z,3.90
2018-03-08T03:30:08.108Z,3.90
2018-03-08T03:32:37.346Z,3.90
2018-03-08T03:35:05.781Z,3.90
2018-03-08T03:37:33.363Z,3.80
2018-03-08T03:40:02.288Z,3.80
2018-03-08T03:42:30.770Z,3.80
2018-03-08T03:44:59.435Z,3.80
2018-03-08T03:47:26.972Z,3.80
2018-03-08T03:49:54.942Z,3.80
2018-03-08T03:52:22.512Z,3.80
2018-03-08T03:54:50.064Z,3.80
2018-03-08T03:57:18.026Z,3.70
2018-03-08T03:59:46.212Z,3.70
2018-03-08T04:02:13.763Z,3.60
2018-03-08T04:04:41.360Z,3.60
2018-03-08T04:07:08.910Z,3.50
2018-03-08T04:09:36.478Z,3.50
2018-03-08T04:12:04.036Z,3.50
2018-03-08T04:14:31.602Z,3.40
2018-03-08T04:16:59.181Z,3.50
2018-03-08T04:19:26.753Z,3.50
2018-03-08T04:21:54.316Z,3.50
2018-03-08T04:24:22.585Z,3.40
2018-03-08T04:26:50.125Z,3.30
2018-03-08T04:29:17.670Z,3.20
2018-03-08T04:31:45.213Z,3.00
2018-03-08T04:34:12.741Z,3.00
2018-03-08T04:36:40.333Z,3.00
2018-03-08T04:39:08.848Z,3.00
2018-03-08T04:41:36.413Z,2.90
2018-03-08T04:44:03.974Z,2.80
2018-03-08T04:46:31.546Z,2.70
2018-03-08T04:48:59.097Z,2.60
2018-03-08T04:51:26.676Z,2.60
2018-03-08T04:53:54.283Z,2.60
2018-03-08T04:56:23.141Z,2.50
2018-03-08T04:58:50.690Z,2.50
2018-03-08T05:01:18.311Z,2.40
2018-03-08T05:03:45.872Z,2.50
2018-03-08T05:06:13.414Z,2.50
2018-03-08T05:08:41.758Z,2.50
2018-03-08T05:11:09.347Z,2.50
2018-03-08T05:13:36.949Z,2.50
2018-03-08T05:16:04.534Z,2.50
2018-03-08T05:18:32.961Z,2.50
2018-03-08T05:21:01.396Z,2.60
2018-03-08T05:23:28.993Z,2.60
2018-03-08T05:25:56.585Z,2.50
2018-03-08T05:28:24.214Z,2.50
2018-03-08T05:30:51.784Z,2.40
2018-03-08T05:33:20.165Z,2.40
2018-03-08T05:35:48.322Z,2.30
2018-03-08T05:38:16.225Z,2.30
2018-03-08T05:40:43.897Z,2.30
2018-03-08T05:43:12.320Z,2.30
2018-03-08T05:45:40.309Z,2.40
2018-03-08T05:48:07.881Z,2.40
2018-03-08T05:50:35.543Z,2.50
2018-03-08T05:53:03.989Z,2.80
2018-03-08T05:55:32.408Z,3.10
2018-03-08T05:58:01.044Z,3.10
2018-03-08T06:00:28.620Z,3.30
2018-03-08T06:02:56.754Z,3.30
2018-03-08T06:05:24.736Z,3.30
2018-03-08T06:07:52.280Z,3.50
2018-03-08T06:10:20.609Z,3.50
2018-03-08T06:12:49.026Z,3.50
2018-03-08T06:15:18.213Z,3.50
2018-03-08T06:17:45.803Z,3.60
2018-03-08T06:20:13.373Z,3.60
2018-03-08T06:22:40.961Z,3.70
2018-03-08T06:25:09.361Z,3.70
2018-03-08T06:27:36.902Z,3.80
2018-03-08T06:30:04.481Z,4.00
2018-03-08T06:32:32.079Z,4.00
2018-03-08T06:34:59.709Z,4.00
2018-03-08T06:37:27.765Z,4.10
2018-03-08T06:39:55.361Z,4.10
2018-03-08T06:42:22.910Z,4.20
2018-03-08T06:44:55.407Z,4.30
2018-03-08T06:47:22.990Z,4.30
2018-03-08T06:49:50.545Z,4.40
2018-03-08T06:52:18.124Z,4.50
2018-03-08T06:54:46.507Z,4.50
2018-03-08T06:57:14.299Z,4.50
2018-03-08T06:59:42.161Z,4.50
2018-03-08T07:02:09.822Z,4.60
2018-03-08T07:04:37.338Z,4.60
2018-03-08T07:07:05.553Z,4.80
2018-03-08T07:09:34.763Z,4.80
2018-03-08T07:12:02.288Z,4.80
2018-03-08T07:14:29.879Z,4.90
2018-03-08T07:16:57.430Z,4.90
2018-03-08T07:19:24.983Z,4.90
2018-03-08T07:21:52.552Z,5.00
2018-03-08T07:24:20.139Z,5.00
2018-03-08T07:26:48.582Z,5.10
2018-03-08T07:29:16.120Z,5.20
2018-03-08T07:31:44.649Z,5.30
2018-03-08T07:34:12.282Z,5.40
2018-03-08T07:36:39.853Z,5.50
2018-03-08T07:39:07.411Z,5.50
2018-03-08T07:41:35.898Z,5.60
2018-03-08T07:44:03.462Z,5.50
2018-03-08T07:46:31.057Z,5.60
2018-03-08T07:48:58.658Z,5.70
2018-03-08T07:51:27.030Z,5.90
2018-03-08T07:53:54.661Z,5.90
2018-03-08T07:56:23.109Z,5.90
2018-03-08T07:58:50.666Z,6.00
2018-03-08T08:01:18.252Z,6.10
2018-03-08T08:03:45.799Z,6.10
2018-03-08T08:06:25.169Z,6.20
2018-03-08T08:09:04.838Z,6.10
2018-03-08T08:11:32.394Z,6.10
2018-03-08T08:13:59.924Z,6.10
2018-03-08T08:16:33.922Z,6.10
2018-03-08T08:19:01.506Z,6.20
2018-03-08T08:21:30.089Z,6.30
2018-03-08T08:23:58.975Z,6.50
2018-03-08T08:26:26.528Z,6.50
2018-03-08T08:28:54.145Z,6.60
2018-03-08T08:31:21.706Z,6.70
2018-03-08T08:33:49.279Z,6.70
2018-03-08T08:36:16.828Z,6.70
2018-03-08T08:38:44.406Z,6.70
2018-03-08T08:41:11.948Z,6.70
2018-03-08T08:43:39.541Z,6.90
2018-03-08T08:46:07.137Z,7.00
2018-03-08T08:48:34.701Z,7.10
2018-03-08T08:51:02.566Z,7.10
2018-03-08T08:53:30.377Z,7.10
2018-03-08T08:55:59.249Z,7.10
2018-03-08T08:58:26.812Z,7.10
2018-03-08T09:00:54.415Z,7.10
2018-03-08T09:03:22.393Z,6.90
2018-03-08T09:05:50.016Z,6.90
2018-03-08T09:08:18.621Z,7.00
2018-03-08T09:10:46.609Z,7.20
2018-03-08T09:13:14.534Z,7.50
2018-03-08T09:15:42.108Z,7.50
2018-03-08T09:18:09.655Z,7.60
2018-03-08T09:20:38.857Z,7.60
2018-03-08T09:23:06.973Z,7.80
2018-03-08T09:25:35.533Z,8.20
2018-03-08T09:28:03.638Z,8.20
2018-03-08T09:30:31.176Z,8.30
2018-03-08T09:32:59.188Z,8.30
2018-03-08T09:35:27.013Z,8.30
2018-03-08T09:37:55.574Z,8.30
2018-03-08T09:40:23.817Z,8.30
2018-03-08T09:42:51.415Z,8.50
2018-03-08T09:45:19.723Z,8.50
2018-03-08T09:47:47.648Z,8.50
2018-03-08T09:50:16.528Z,8.50
2018-03-08T09:52:44.562Z,8.50
2018-03-08T09:55:12.502Z,8.30
2018-03-08T09:57:41.260Z,8.30
2018-03-08T10:00:08.805Z,8.50
2018-03-08T10:02:37.511Z,8.60
2018-03-08T10:05:05.074Z,8.70
2018-03-08T10:07:34.090Z,8.60
2018-03-08T10:10:01.676Z,8.60
2018-03-08T10:12:30.094Z,8.60
2018-03-08T10:14:58.063Z,8.60
2018-03-08T10:17:25.808Z,8.50
2018-03-08T10:19:53.395Z,8.50
2018-03-08T10:22:20.970Z,8.70
2018-03-08T10:24:48.554Z,9.10
2018-03-08T10:27:18.376Z,9.10
2018-03-08T10:29:46.325Z,8.90
2018-03-08T10:32:13.931Z,8.90
2018-03-08T10:34:41.490Z,9.00
2018-03-08T10:37:09.487Z,9.00
2018-03-08T10:39:37.063Z,9.00
2018-03-08T10:42:05.456Z,9.00
2018-03-08T10:44:33.039Z,8.90
2018-03-08T10:47:01.008Z,8.60
2018-03-08T10:49:29.047Z,8.40
2018-03-08T10:51:57.485Z,8.40
2018-03-08T10:54:25.089Z,8.40
2018-03-08T10:56:52.646Z,8.40
2018-03-08T10:59:20.193Z,8.50
2018-03-08T11:01:53.668Z,8.50
2018-03-08T11:04:26.969Z,8.50
2018-03-08T11:06:54.491Z,8.60
2018-03-08T11:09:22.092Z,8.70
2018-03-08T11:11:49.654Z,8.70
2018-03-08T11:14:17.542Z,8.90
2018-03-08T11:16:45.843Z,8.90
2018-03-08T11:19:13.438Z,9.00
2018-03-08T11:21:41.033Z,9.00
2018-03-08T11:24:08.662Z,9.00
2018-03-08T11:26:36.256Z,8.90
2018-03-08T12:02:39.526Z,10.20
2018-03-08T12:05:07.094Z,10.90
2018-03-08T12:07:34.710Z,11.40
2018-03-08T12:10:02.272Z,11.50
2018-03-08T12:12:30.286Z,11.20
2018-03-08T12:14:57.903Z,11.20
2018-03-08T12:17:25.877Z,10.90
2018-03-08T12:19:53.790Z,10.80
2018-03-08T12:22:21.706Z,10.80
2018-03-08T12:24:50.724Z,11.10
2018-03-08T12:27:18.266Z,11.10
2018-03-08T12:29:45.827Z,11.40
2018-03-08T12:32:13.465Z,11.70
2018-03-08T12:34:41.018Z,11.50
2018-03-08T12:37:08.556Z,11.20
2018-03-08T12:39:37.030Z,11.20
2018-03-08T12:42:04.546Z,12.40
2018-03-08T12:44:32.870Z,12.50
2018-03-08T12:47:01.562Z,12.80
2018-03-08T12:49:29.213Z,12.80
2018-03-08T12:51:56.761Z,12.30
2018-03-08T12:54:24.839Z,11.90
2018-03-08T12:56:53.375Z,11.80
2018-03-08T12:59:21.351Z,11.50
2018-03-08T13:01:48.896Z,11.50
2018-03-08T13:04:16.845Z,11.70
2018-03-08T13:06:44.360Z,11.70
2018-03-08T13:09:11.932Z,11.80
2018-03-08T13:11:39.574Z,11.70
2018-03-08T13:14:07.050Z,11.50
2018-03-08T13:16:34.626Z,11.50
2018-03-08T13:19:02.205Z,11.50
2018-03-08T13:21:31.064Z,13.10
2018-03-08T13:23:58.611Z,13.10
2018-03-08T13:26:26.166Z,14.50
2018-03-08T13:28:53.782Z,16.20
2018-03-08T13:31:21.304Z,17.10
2018-03-08T13:33:48.915Z,18.40
2018-03-08T13:36:16.466Z,19.30
2018-03-08T13:38:44.427Z,18.50
2018-03-08T13:41:12.009Z,18.50
2018-03-08T13:43:39.964Z,17.40
2018-03-08T13:46:07.902Z,17.50
2018-03-08T13:48:35.462Z,17.50
2018-03-08T13:51:03.121Z,16.70
2018-03-08T13:53:31.198Z,15.50
2018-03-08T13:55:58.766Z,14.80
2018-03-08T13:58:27.185Z,14.20
2018-03-08T14:00:55.149Z,13.90
2018-03-08T14:03:22.732Z,13.90
2018-03-08T14:05:50.432Z,14.40
2018-03-08T14:08:17.970Z,14.70
2018-03-08T14:10:45.514Z,14.20
2018-03-08T14:13:13.086Z,13.50
2018-03-08T14:15:40.650Z,12.80
2018-03-08T14:18:08.218Z,12.50
2018-03-08T14:20:35.917Z,12.40
2018-03-08T14:23:03.905Z,12.30
2018-03-08T14:25:31.469Z,12.30
2018-03-08T14:27:59.001Z,12.10
2018-03-08T14:30:27.480Z,12.00
2018-03-08T14:32:55.429Z,11.80
2018-03-08T14:35:23.554Z,11.80
2018-03-08T14:37:51.124Z,11.70
2018-03-08T14:40:18.767Z,11.60
2018-03-08T14:42:46.339Z,11.50
2018-03-08T14:45:13.909Z,11.40
2018-03-08T14:47:41.461Z,11.40
2018-03-08T14:50:09.013Z,11.40
2018-03-08T14:52:36.575Z,11.40
2018-03-08T14:55:04.159Z,11.40
2018-03-08T14:57:31.736Z,11.40
2018-03-08T14:59:59.300Z,11.30
2018-03-08T15:02:26.826Z,11.30
2018-03-08T15:04:54.395Z,11.20
2018-03-08T15:07:21.976Z,11.20
2018-03-08T15:09:49.545Z,11.20
2018-03-08T15:12:17.143Z,11.20
2018-03-08T15:14:44.701Z,11.40
2018-03-08T15:17:13.229Z,11.60
2018-03-08T15:19:40.811Z,11.90
2018-03-08T15:22:08.333Z,11.80
2018-03-08T15:24:35.896Z,11.60
2018-03-08T15:27:04.025Z,11.30
2018-03-08T15:29:32.034Z,11.00
2018-03-08T15:31:59.546Z,11.00
2018-03-08T15:34:27.519Z,10.80
2018-03-08T15:36:55.472Z,10.80
2018-03-08T15:39:23.030Z,10.80
2018-03-08T15:41:50.586Z,10.80
2018-03-08T15:44:18.135Z,10.80
2018-03-08T15:46:45.706Z,10.80
2018-03-08T15:49:13.256Z,10.80
2018-03-08T15:51:40.829Z,10.80
2018-03-08T15:54:08.385Z,10.90
2018-03-08T15:56:35.950Z,11.00
2018-03-08T15:59:04.373Z,11.10
2018-03-08T16:01:31.978Z,11.20
2018-03-08T16:03:59.503Z,11.10
2018-03-08T16:06:38.988Z,11.10
2018-03-08T16:09:06.666Z,11.00
2018-03-08T16:11:34.220Z,10.90
2018-03-08T16:14:02.142Z,10.70
2018-03-08T16:16:30.665Z,10.70
2018-03-08T16:18:58.236Z,10.60
2018-03-08T16:21:26.157Z,10.40
2018-03-08T16:23:54.165Z,10.40
2018-03-08T16:26:22.116Z,10.40
2018-03-08T16:28:49.666Z,10.40
2018-03-08T16:31:17.228Z,10.30
2018-03-08T16:33:44.807Z,10.30
2018-03-08T16:36:12.370Z,10.30
2018-03-08T16:38:39.943Z,10.30
2018-03-08T16:41:07.946Z,10.20
2018-03-08T16:43:35.531Z,10.20
2018-03-08T16:46:03.126Z,10.20
2018-03-08T16:48:31.069Z,10.10
2018-03-08T16:50:58.603Z,10.10
2018-03-08T16:53:26.158Z,10.10
2018-03-08T16:55:54.650Z,10.10
2018-03-08T16:58:22.226Z,10.00
2018-03-08T17:00:49.777Z,10.10
2018-03-08T17:03:17.365Z,10.10
2018-03-08T17:05:45.393Z,10.10
2018-03-08T17:08:12.963Z,10.10
2018-03-08T17:10:40.526Z,10.00
2018-03-08T17:13:08.096Z,10.00
2018-03-08T17:15:35.664Z,10.00
2018-03-08T17:18:03.201Z,9.90
2018-03-08T17:20:30.739Z,9.90
2018-03-08T17:22:58.294Z,9.90
2018-03-08T17:25:25.890Z,9.90
2018-03-08T17:27:53.456Z,9.90
2018-03-08T17:30:21.026Z,9.90
2018-03-08T17:32:48.563Z,9.80
2018-03-08T17:35:16.134Z,9.80
2018-03-08T17:37:43.716Z,9.80
2018-03-08T17:40:11.671Z,9.80
2018-03-08T17:42:39.252Z,9.80
2018-03-08T17:45:06.784Z,9.90
2018-03-08T17:47:34.326Z,9.90
2018-03-08T17:50:01.887Z,9.90
2018-03-08T17:52:29.490Z,9.90
2018-03-08T17:54:57.039Z,9.90
2018-03-08T17:57:24.595Z,9.90
2018-03-08T17:59:52.220Z,10.00
2018-03-08T18:02:20.128Z,10.10
2018-03-08T18:04:47.672Z,10.10
2018-03-08T18:07:15.227Z,10.20
2018-03-08T18:09:42.792Z,10.30
2018-03-08T18:12:10.351Z,10.20
2018-03-08T18:14:37.921Z,9.80
2018-03-08T18:17:05.459Z,9.40
2018-03-08T18:19:32.987Z,9.00
2018-03-08T18:22:01.223Z,8.40
2018-03-08T18:24:29.215Z,8.20
2018-03-08T18:26:56.816Z,8.20
2018-03-08T18:29:24.383Z,7.90
2018-03-08T18:31:51.958Z,7.60
2018-03-08T18:34:19.550Z,7.40
2018-03-08T18:36:48.176Z,6.60
2018-03-08T18:39:15.752Z,6.60
2018-03-08T18:41:43.307Z,6.20
2018-03-08T18:44:10.894Z,6.10
2018-03-08T18:46:38.450Z,6.00
2018-03-08T18:49:05.988Z,5.90
2018-03-08T18:51:33.541Z,5.90
2018-03-08T18:54:01.877Z,5.90
2018-03-08T18:56:29.467Z,5.80
2018-03-08T18:58:57.028Z,5.80
2018-03-08T19:01:24.670Z,5.70
2018-03-08T19:03:52.225Z,5.70
2018-03-08T19:06:19.794Z,5.70
2018-03-08T19:08:47.434Z,5.70
2018-03-08T19:11:14.982Z,5.60
2018-03-08T19:13:42.937Z,5.70
2018-03-08T19:16:10.515Z,5.70
2018-03-08T19:18:38.052Z,5.80
2018-03-08T19:21:05.638Z,5.80
2018-03-08T19:23:33.611Z,5.80
2018-03-08T19:26:01.616Z,5.80
2018-03-08T19:28:29.168Z,5.80
2018-03-08T19:30:56.810Z,5.70
2018-03-08T19:33:25.037Z,5.60
2018-03-08T19:35:52.876Z,5.60
2018-03-08T19:38:20.863Z,5.50
2018-03-08T19:40:48.880Z,5.50
2018-03-08T19:43:16.831Z,5.40
2018-03-08T19:45:44.409Z,5.40
2018-03-08T19:48:12.375Z,5.40
2018-03-08T19:50:40.336Z,5.40
2018-03-08T19:53:08.318Z,5.40
2018-03-08T19:55:35.947Z,5.40
2018-03-08T19:58:04.330Z,5.40
2018-03-08T20:00:31.896Z,5.40
2018-03-08T20:02:59.437Z,5.40
2018-03-08T20:05:26.983Z,5.40
2018-03-08T20:07:54.529Z,5.40
2018-03-08T20:10:22.090Z,5.40
2018-03-08T20:12:49.714Z,5.40
2018-03-08T20:15:17.683Z,5.40
2018-03-08T20:17:45.654Z,5.40
2018-03-08T20:20:13.520Z,5.40
2018-03-08T20:22:41.482Z,5.40
2018-03-08T20:25:09.399Z,5.40
2018-03-08T20:27:36.991Z,5.40
2018-03-08T20:30:04.566Z,5.50
2018-03-08T20:32:32.130Z,5.40
2018-03-08T20:35:00.077Z,5.30
2018-03-08T20:37:27.869Z,5.30
2018-03-08T20:39:55.492Z,5.30
2018-03-08T20:42:23.065Z,5.30
2018-03-08T20:44:50.640Z,5.30
2018-03-08T20:47:18.617Z,5.40
2018-03-08T20:49:46.572Z,5.40
2018-03-08T20:52:14.977Z,5.40
2018-03-08T20:54:42.961Z,5.40
2018-03-08T20:57:10.521Z,5.40
2018-03-08T20:59:38.468Z,5.40
2018-03-08T21:02:07.191Z,5.40
2018-03-08T21:04:34.757Z,5.40
2018-03-08T21:07:02.352Z,5.40
2018-03-08T21:09:29.982Z,5.40
2018-03-08T21:11:57.522Z,5.30
2018-03-08T21:14:25.071Z,5.30
2018-03-08T21:16:52.665Z,5.40
2018-03-08T21:19:20.231Z,5.30
2018-03-08T21:21:47.786Z,5.30
2018-03-08T21:24:15.330Z,5.20
2018-03-08T21:26:42.937Z,5.20
2018-03-08T21:29:10.493Z,5.20
2018-03-08T21:31:38.042Z,5.20
2018-03-08T21:34:05.679Z,5.10
2018-03-08T21:36:33.170Z,5.00
2018-03-08T21:39:01.003Z,4.90
2018-03-08T21:41:28.567Z,4.90
2018-03-08T21:43:56.155Z,4.90
2018-03-08T21:46:23.696Z,4.80
2018-03-08T21:48:51.776Z,4.80
2018-03-08T21:51:19.406Z,4.80
2018-03-08T21:53:47.065Z,4.80
2018-03-08T21:56:15.141Z,4.80
2018-03-08T21:58:42.689Z,4.80
2018-03-08T22:01:10.226Z,4.80
2018-03-08T22:03:37.772Z,4.80
2018-03-08T22:06:05.759Z,4.70
2018-03-08T22:08:33.271Z,4.70
2018-03-08T22:11:00.807Z,4.70
2018-03-08T22:13:28.399Z,4.70
2018-03-08T22:15:55.967Z,4.60
2018-03-08T22:18:23.513Z,4.60
2018-03-08T22:20:51.744Z,4.50
2018-03-08T22:23:19.295Z,4.60
2018-03-08T22:25:46.932Z,4.50
2018-03-08T22:28:14.496Z,4.50
2018-03-08T22:30:42.436Z,4.60
2018-03-08T22:33:10.244Z,4.60
2018-03-08T22:35:38.353Z,4.70
2018-03-08T22:38:05.924Z,4.70
2018-03-08T22:40:33.499Z,4.70
2018-03-08T22:43:01.124Z,4.60
2018-03-08T22:45:28.905Z,4.60
2018-03-08T22:47:56.478Z,4.60
2018-03-08T22:50:24.022Z,4.50
2018-03-08T22:52:51.646Z,4.50
2018-03-08T22:55:19.641Z,4.40
2018-03-08T22:57:47.348Z,4.40
2018-03-08T23:00:15.848Z,4.50
2018-03-08T23:02:43.769Z,4.30
2018-03-08T23:05:11.343Z,4.30
2018-03-08T23:07:38.913Z,4.30
2018-03-08T23:10:06.464Z,4.20
2018-03-08T23:12:34.046Z,4.10
2018-03-08T23:15:01.598Z,4.10
2018-03-08T23:17:29.575Z,4.10
2018-03-08T23:19:57.124Z,4.10
2018-03-08T23:22:24.693Z,4.10
2018-03-08T23:24:52.423Z,4.10
2018-03-08T23:27:19.975Z,4.10
2018-03-08T23:29:47.497Z,4.00
2018-03-08T23:32:15.682Z,4.00
2018-03-08T23:34:43.240Z,3.90
2018-03-08T23:37:10.765Z,3.90
2018-03-08T23:39:39.899Z,3.80
2018-03-08T23:42:07.461Z,3.80
2018-03-08T23:44:35.021Z,3.80
2018-03-08T23:47:02.972Z,3.70
2018-03-08T23:49:30.548Z,3.70
2018-03-08T23:51:58.183Z,3.50
2018-03-08T23:54:26.208Z,3.20
2018-03-08T23:56:53.855Z,3.20
2018-03-08T23:59:21.833Z,3.00
